Ice Star — OUJK2 — position and weather

sailwx.info

Track history (hours):
 
Tides and Currents Weather Stations Pressure Air Temp Water Temp Dewpoint Dewpoint Depression Visibility Wind Speed Wind Dir Waves Ship Positions

Ice Star

Last reported at 2017-Nov-29 16:53 UTC. Time now 2017-Dec-12 00:23 UTC.
Position N 41°17' E 140°12'.
Warning: this ship's position is 12 days out of date.

Length 367 m; draft 12.3 m.

Type: Ship (hazmat cat A). MMSI: 220596000.

Date/timePositionNaut miles runAvg speedWind from/ knotsBaromVisibWave heightAir tempDewpointWater temp
2017-Nov-29 16:53N 41°17' E 140°12'717.2
2017-Nov-29 16:28N 41°22' E 140°19'817.8
2017-Nov-29 16:00N 41°27' E 140°28'918.6
2017-Nov-29 15:31N 41°31' E 140°39'917.7
2017-Nov-29 15:00N 41°37' E 140°48'816.0
2017-Nov-29 14:30N 41°39' E 140°59'816.1
2017-Nov-29 14:00N 41°39' E 141°09'917.4
2017-Nov-29 13:30N 41°40' E 141°21'918.0
2017-Nov-29 13:00N 41°40' E 141°33'  
2017-Nov-19 23:02N 38°15' W 125°24'119.3
2017-Nov-19 22:58N 38°15' W 125°22'920.0
2017-Nov-19 22:31N 38°15' W 125°10'1019.6
2017-Nov-19 22:01N 38°14' W 124°58'1019.5
2017-Nov-19 21:30N 38°14' W 124°45'1019.6
2017-Nov-19 21:00N 38°13' W 124°33'1019.8
2017-Nov-19 20:31N 38°13' W 124°20'1019.0
2017-Nov-19 20:00N 38°12' W 124°08'918.5
2017-Nov-19 19:30N 38°12' W 123°56'918.8
2017-Nov-19 19:01N 38°11' W 123°45'918.6
2017-Nov-19 18:30N 38°11' W 123°33'918.3
2017-Nov-19 18:01N 38°10' W 123°21'1019.0
2017-Nov-19 17:30N 38°03' W 123°13'918.8
2017-Nov-19 17:00N 37°56' W 123°04'  
Track history (hours):
 
Tides and Currents Weather Stations Pressure Air Temp Water Temp Dewpoint Dewpoint Depression Visibility Wind Speed Wind Dir Waves Ship Positions

Ice Star

Last reported at 2017-Nov-29 16:53 UTC. Time now 2017-Dec-12 00:23 UTC.
Position N 41°17' E 140°12'.
Warning: this ship's position is 12 days out of date.

Length 367 m; draft 12.3 m.

Type: Ship (hazmat cat A). MMSI: 220596000.

Date/timePositionNaut miles runAvg speedWind from/ knotsBaromVisibWave heightAir tempDewpointWater temp
2017-Nov-29 16:53N 41°17' E 140°12'717.2
2017-Nov-29 16:28N 41°22' E 140°19'817.8
2017-Nov-29 16:00N 41°27' E 140°28'918.6
2017-Nov-29 15:31N 41°31' E 140°39'917.7
2017-Nov-29 15:00N 41°37' E 140°48'816.0
2017-Nov-29 14:30N 41°39' E 140°59'816.1
2017-Nov-29 14:00N 41°39' E 141°09'917.4
2017-Nov-29 13:30N 41°40' E 141°21'918.0
2017-Nov-29 13:00N 41°40' E 141°33'  
2017-Nov-19 23:02N 38°15' W 125°24'119.3
2017-Nov-19 22:58N 38°15' W 125°22'920.0
2017-Nov-19 22:31N 38°15' W 125°10'1019.6
2017-Nov-19 22:01N 38°14' W 124°58'1019.5
2017-Nov-19 21:30N 38°14' W 124°45'1019.6
2017-Nov-19 21:00N 38°13' W 124°33'1019.8
2017-Nov-19 20:31N 38°13' W 124°20'1019.0
2017-Nov-19 20:00N 38°12' W 124°08'918.5
2017-Nov-19 19:30N 38°12' W 123°56'918.8
2017-Nov-19 19:01N 38°11' W 123°45'918.6
2017-Nov-19 18:30N 38°11' W 123°33'918.3
2017-Nov-19 18:01N 38°10' W 123°21'1019.0
2017-Nov-19 17:30N 38°03' W 123°13'918.8
2017-Nov-19 17:00N 37°56' W 123°04'  

Dump ship's entire track history